<?xml version="1.0" encoding="utf-8"?>
<gpx xmlns:xsi="http://www.w3.org/2001/XMLSchema-instance" xmlns:xsd="http://www.w3.org/2001/XMLSchema" version="1.1" creator="Shapelink.com" xmlns="http://www.topografix.com/GPX/1/1" xmlns:gpxtpx="http://www.garmin.com/xmlschemas/TrackPointExtension/v1">
  <metadata>
    <name>F&S Vandring 1.86 km, 2020-01-02</name>
    <desc></desc>
    <author><name>Per Rooth</name></author> 
    <time>2020-01-02T18:52:09Z</time>
  </metadata>
  <trk>
    <name>F&S Vandring 1.86 km, 2020-01-02</name>
    <trkseg>
      <trkpt lat="61.30651663269" lon="12.239578028471">
        <ele>447.4</ele>
        <time>2020-01-02T18:52:09Z</time>
      </trkpt>
      <trkpt lat="61.306636242403" lon="12.239291870405">
        <ele>447.8</ele>
        <time>2020-01-02T18:52:22Z</time>
      </trkpt>
      <trkpt lat="61.306710673675" lon="12.239016105895">
        <ele>448.8</ele>
        <time>2020-01-02T18:52:33Z</time>
      </trkpt>
      <trkpt lat="61.306708075286" lon="12.238836062683">
        <ele>449.8</ele>
        <time>2020-01-02T18:52:40Z</time>
      </trkpt>
      <trkpt lat="61.306685360337" lon="12.238714525133">
        <ele>450.8</ele>
        <time>2020-01-02T18:52:45Z</time>
      </trkpt>
      <trkpt lat="61.306663567397" lon="12.2386049737">
        <ele>451.8</ele>
        <time>2020-01-02T18:52:50Z</time>
      </trkpt>
      <trkpt lat="61.306644205208" lon="12.238519059225">
        <ele>452.8</ele>
        <time>2020-01-02T18:52:54Z</time>
      </trkpt>
      <trkpt lat="61.306603133898" lon="12.238401461168">
        <ele>453.6</ele>
        <time>2020-01-02T18:52:59Z</time>
      </trkpt>
      <trkpt lat="61.306546304616" lon="12.238311104286">
        <ele>454</ele>
        <time>2020-01-02T18:53:03Z</time>
      </trkpt>
      <trkpt lat="61.306469191136" lon="12.238192416582">
        <ele>454.4</ele>
        <time>2020-01-02T18:53:11Z</time>
      </trkpt>
      <trkpt lat="61.30643029912" lon="12.238074483249">
        <ele>455.2</ele>
        <time>2020-01-02T18:53:17Z</time>
      </trkpt>
      <trkpt lat="61.306416552804" lon="12.237963842169">
        <ele>456.2</ele>
        <time>2020-01-02T18:53:22Z</time>
      </trkpt>
      <trkpt lat="61.30644538654" lon="12.237799808386">
        <ele>457.2</ele>
        <time>2020-01-02T18:53:29Z</time>
      </trkpt>
      <trkpt lat="61.306486876945" lon="12.237672403506">
        <ele>458.4</ele>
        <time>2020-01-02T18:53:35Z</time>
      </trkpt>
      <trkpt lat="61.30653507287" lon="12.237532341957">
        <ele>459.6</ele>
        <time>2020-01-02T18:53:41Z</time>
      </trkpt>
      <trkpt lat="61.306574719257" lon="12.237395130254">
        <ele>460.8</ele>
        <time>2020-01-02T18:53:47Z</time>
      </trkpt>
      <trkpt lat="61.306580167492" lon="12.23728817721">
        <ele>461.4</ele>
        <time>2020-01-02T18:53:51Z</time>
      </trkpt>
      <trkpt lat="61.306559715656" lon="12.237172674628">
        <ele>462</ele>
        <time>2020-01-02T18:53:56Z</time>
      </trkpt>
      <trkpt lat="61.3064822669" lon="12.237051723811">
        <ele>463</ele>
        <time>2020-01-02T18:54:02Z</time>
      </trkpt>
      <trkpt lat="61.306403896135" lon="12.236973269227">
        <ele>464</ele>
        <time>2020-01-02T18:54:08Z</time>
      </trkpt>
      <trkpt lat="61.306232318642" lon="12.236837063352">
        <ele>465</ele>
        <time>2020-01-02T18:54:21Z</time>
      </trkpt>
      <trkpt lat="61.306193678083" lon="12.236821389199">
        <ele>465</ele>
        <time>2020-01-02T18:54:24Z</time>
      </trkpt>
      <trkpt lat="61.306149924565" lon="12.236818036439">
        <ele>465.4</ele>
        <time>2020-01-02T18:54:28Z</time>
      </trkpt>
      <trkpt lat="61.306136345887" lon="12.236816779154">
        <ele>465.6</ele>
        <time>2020-01-02T18:54:29Z</time>
      </trkpt>
      <trkpt lat="61.306047330109" lon="12.236844020329">
        <ele>466</ele>
        <time>2020-01-02T18:54:35Z</time>
      </trkpt>
      <trkpt lat="61.305948591327" lon="12.23698139967">
        <ele>467.2</ele>
        <time>2020-01-02T18:54:43Z</time>
      </trkpt>
      <trkpt lat="61.305863431223" lon="12.237083072117">
        <ele>468.4</ele>
        <time>2020-01-02T18:54:50Z</time>
      </trkpt>
      <trkpt lat="61.305689842074" lon="12.237179044872">
        <ele>468.4</ele>
        <time>2020-01-02T18:55:02Z</time>
      </trkpt>
      <trkpt lat="61.305562353375" lon="12.237109475102">
        <ele>468.6</ele>
        <time>2020-01-02T18:55:12Z</time>
      </trkpt>
      <trkpt lat="61.305419944894" lon="12.236871680599">
        <ele>469</ele>
        <time>2020-01-02T18:55:25Z</time>
      </trkpt>
      <trkpt lat="61.305290779815" lon="12.236588959112">
        <ele>469.4</ele>
        <time>2020-01-02T18:55:37Z</time>
      </trkpt>
      <trkpt lat="61.305146443497" lon="12.236328868755">
        <ele>470.4</ele>
        <time>2020-01-02T18:55:49Z</time>
      </trkpt>
      <trkpt lat="61.305135798484" lon="12.236308165462">
        <ele>470.4</ele>
        <time>2020-01-02T18:55:50Z</time>
      </trkpt>
      <trkpt lat="61.305013925658" lon="12.236016391523">
        <ele>471.4</ele>
        <time>2020-01-02T18:56:04Z</time>
      </trkpt>
      <trkpt lat="61.304979643687" lon="12.235950258332">
        <ele>471.6</ele>
        <time>2020-01-02T18:56:08Z</time>
      </trkpt>
      <trkpt lat="61.304943936793" lon="12.235882700218">
        <ele>471.8</ele>
        <time>2020-01-02T18:56:13Z</time>
      </trkpt>
      <trkpt lat="61.304904541863" lon="12.235822685814">
        <ele>472.4</ele>
        <time>2020-01-02T18:56:16Z</time>
      </trkpt>
      <trkpt lat="61.304892555746" lon="12.23579787539">
        <ele>472.6</ele>
        <time>2020-01-02T18:56:17Z</time>
      </trkpt>
      <trkpt lat="61.304777639897" lon="12.235585310406">
        <ele>473.6</ele>
        <time>2020-01-02T18:56:27Z</time>
      </trkpt>
      <trkpt lat="61.304679571667" lon="12.235479111733">
        <ele>474.8</ele>
        <time>2020-01-02T18:56:34Z</time>
      </trkpt>
      <trkpt lat="61.304574211184" lon="12.235374840897">
        <ele>475.8</ele>
        <time>2020-01-02T18:56:41Z</time>
      </trkpt>
      <trkpt lat="61.304477903153" lon="12.235359669658">
        <ele>476.8</ele>
        <time>2020-01-02T18:56:48Z</time>
      </trkpt>
      <trkpt lat="61.304293668991" lon="12.235445584133">
        <ele>477.8</ele>
        <time>2020-01-02T18:56:59Z</time>
      </trkpt>
      <trkpt lat="61.304278749209" lon="12.235488918556">
        <ele>478</ele>
        <time>2020-01-02T18:57:00Z</time>
      </trkpt>
      <trkpt lat="61.304085127319" lon="12.235563936561">
        <ele>478.8</ele>
        <time>2020-01-02T18:57:14Z</time>
      </trkpt>
      <trkpt lat="61.304072135374" lon="12.235571647909">
        <ele>479</ele>
        <time>2020-01-02T18:57:15Z</time>
      </trkpt>
      <trkpt lat="61.304029136227" lon="12.235581119456">
        <ele>479.8</ele>
        <time>2020-01-02T18:57:19Z</time>
      </trkpt>
      <trkpt lat="61.304007762382" lon="12.235581370913">
        <ele>480.2</ele>
        <time>2020-01-02T18:57:21Z</time>
      </trkpt>
      <trkpt lat="61.30397691699" lon="12.235557901593">
        <ele>481</ele>
        <time>2020-01-02T18:57:24Z</time>
      </trkpt>
      <trkpt lat="61.303975743524" lon="12.235559661792">
        <ele>481.2</ele>
        <time>2020-01-02T18:57:25Z</time>
      </trkpt>
      <trkpt lat="61.303927379961" lon="12.235490427298">
        <ele>481.6</ele>
        <time>2020-01-02T18:57:32Z</time>
      </trkpt>
      <trkpt lat="61.30382939555" lon="12.235367381006">
        <ele>482.4</ele>
        <time>2020-01-02T18:57:40Z</time>
      </trkpt>
      <trkpt lat="61.303765944567" lon="12.235336703252">
        <ele>483.4</ele>
        <time>2020-01-02T18:57:44Z</time>
      </trkpt>
      <trkpt lat="61.30364667013" lon="12.235315413226">
        <ele>484.6</ele>
        <time>2020-01-02T18:57:52Z</time>
      </trkpt>
      <trkpt lat="61.303575256342" lon="12.235296973046">
        <ele>485.6</ele>
        <time>2020-01-02T18:57:57Z</time>
      </trkpt>
      <trkpt lat="61.303393452931" lon="12.235179039713">
        <ele>486</ele>
        <time>2020-01-02T18:58:11Z</time>
      </trkpt>
      <trkpt lat="61.303327487378" lon="12.23516252737">
        <ele>486.8</ele>
        <time>2020-01-02T18:58:16Z</time>
      </trkpt>
      <trkpt lat="61.303177954282" lon="12.235085916804">
        <ele>487.8</ele>
        <time>2020-01-02T18:58:27Z</time>
      </trkpt>
      <trkpt lat="61.303066810288" lon="12.235032105006">
        <ele>489</ele>
        <time>2020-01-02T18:58:35Z</time>
      </trkpt>
      <trkpt lat="61.302911326043" lon="12.234842841704">
        <ele>489.2</ele>
        <time>2020-01-02T18:58:47Z</time>
      </trkpt>
      <trkpt lat="61.302849383802" lon="12.234715604462">
        <ele>489.4</ele>
        <time>2020-01-02T18:58:53Z</time>
      </trkpt>
      <trkpt lat="61.302828261414" lon="12.23464201138">
        <ele>490.2</ele>
        <time>2020-01-02T18:58:56Z</time>
      </trkpt>
      <trkpt lat="61.302792051606" lon="12.234474038104">
        <ele>491.2</ele>
        <time>2020-01-02T18:59:02Z</time>
      </trkpt>
      <trkpt lat="61.302771515951" lon="12.234317380393">
        <ele>492.4</ele>
        <time>2020-01-02T18:59:08Z</time>
      </trkpt>
      <trkpt lat="61.302749387735" lon="12.234218222516">
        <ele>493.6</ele>
        <time>2020-01-02T18:59:12Z</time>
      </trkpt>
      <trkpt lat="61.302725164044" lon="12.234111185653">
        <ele>494.6</ele>
        <time>2020-01-02T18:59:16Z</time>
      </trkpt>
      <trkpt lat="61.302673196264" lon="12.234036754381">
        <ele>495.8</ele>
        <time>2020-01-02T18:59:21Z</time>
      </trkpt>
      <trkpt lat="61.302615947887" lon="12.234043627539">
        <ele>496.8</ele>
        <time>2020-01-02T18:59:25Z</time>
      </trkpt>
      <trkpt lat="61.302441269091" lon="12.234145383805">
        <ele>496.2</ele>
        <time>2020-01-02T18:59:37Z</time>
      </trkpt>
      <trkpt lat="61.302256699653" lon="12.234180420147">
        <ele>496.2</ele>
        <time>2020-01-02T18:59:49Z</time>
      </trkpt>
      <trkpt lat="61.302078081364" lon="12.234233729031">
        <ele>496.6</ele>
        <time>2020-01-02T19:00:01Z</time>
      </trkpt>
      <trkpt lat="61.301896277953" lon="12.234293743435">
        <ele>497.6</ele>
        <time>2020-01-02T19:00:14Z</time>
      </trkpt>
      <trkpt lat="61.301871048434" lon="12.2342966771">
        <ele>497.8</ele>
        <time>2020-01-02T19:00:16Z</time>
      </trkpt>
      <trkpt lat="61.301693100697" lon="12.234193663549">
        <ele>498</ele>
        <time>2020-01-02T19:00:29Z</time>
      </trkpt>
      <trkpt lat="61.301603246729" lon="12.234108587264">
        <ele>499</ele>
        <time>2020-01-02T19:00:37Z</time>
      </trkpt>
      <trkpt lat="61.301548261465" lon="12.234063492642">
        <ele>500</ele>
        <time>2020-01-02T19:00:42Z</time>
      </trkpt>
      <trkpt lat="61.301425885725" lon="12.233861069757">
        <ele>501.2</ele>
        <time>2020-01-02T19:00:54Z</time>
      </trkpt>
      <trkpt lat="61.301385652605" lon="12.233727965185">
        <ele>502.4</ele>
        <time>2020-01-02T19:01:01Z</time>
      </trkpt>
      <trkpt lat="61.30135086772" lon="12.233632662982">
        <ele>503.4</ele>
        <time>2020-01-02T19:01:06Z</time>
      </trkpt>
      <trkpt lat="61.301249949644" lon="12.233531158173">
        <ele>504.6</ele>
        <time>2020-01-02T19:01:12Z</time>
      </trkpt>
      <trkpt lat="61.301066469853" lon="12.233412051374">
        <ele>504.4</ele>
        <time>2020-01-02T19:01:24Z</time>
      </trkpt>
      <trkpt lat="61.300945351398" lon="12.233307277624">
        <ele>505.8</ele>
        <time>2020-01-02T19:01:34Z</time>
      </trkpt>
      <trkpt lat="61.300894305627" lon="12.233247766134">
        <ele>506.8</ele>
        <time>2020-01-02T19:01:39Z</time>
      </trkpt>
      <trkpt lat="61.300832279567" lon="12.233200743675">
        <ele>508</ele>
        <time>2020-01-02T19:01:44Z</time>
      </trkpt>
      <trkpt lat="61.300766230195" lon="12.233154140311">
        <ele>509.2</ele>
        <time>2020-01-02T19:01:50Z</time>
      </trkpt>
      <trkpt lat="61.30070881418" lon="12.233103848911">
        <ele>510.2</ele>
        <time>2020-01-02T19:01:55Z</time>
      </trkpt>
      <trkpt lat="61.300648883595" lon="12.2330813016">
        <ele>511.4</ele>
        <time>2020-01-02T19:02:00Z</time>
      </trkpt>
      <trkpt lat="61.300577805083" lon="12.233046013801">
        <ele>512.6</ele>
        <time>2020-01-02T19:02:05Z</time>
      </trkpt>
      <trkpt lat="61.30051686867" lon="12.233003014654">
        <ele>513.8</ele>
        <time>2020-01-02T19:02:10Z</time>
      </trkpt>
      <trkpt lat="61.300414274214" lon="12.232894552868">
        <ele>514.8</ele>
        <time>2020-01-02T19:02:18Z</time>
      </trkpt>
      <trkpt lat="61.30027882271" lon="12.232733704207">
        <ele>515.8</ele>
        <time>2020-01-02T19:02:30Z</time>
      </trkpt>
      <trkpt lat="61.300184274878" lon="12.232596408685">
        <ele>517</ele>
        <time>2020-01-02T19:02:38Z</time>
      </trkpt>
      <trkpt lat="61.3000617315" lon="12.232493143677">
        <ele>518</ele>
        <time>2020-01-02T19:02:47Z</time>
      </trkpt>
      <trkpt lat="61.299888896722" lon="12.232336569785">
        <ele>518.6</ele>
        <time>2020-01-02T19:03:00Z</time>
      </trkpt>
      <trkpt lat="61.299737603427" lon="12.232123837163">
        <ele>518.2</ele>
        <time>2020-01-02T19:03:13Z</time>
      </trkpt>
      <trkpt lat="61.299595027308" lon="12.231874308">
        <ele>518.8</ele>
        <time>2020-01-02T19:03:26Z</time>
      </trkpt>
      <trkpt lat="61.299575413662" lon="12.231841534771">
        <ele>519</ele>
        <time>2020-01-02T19:03:28Z</time>
      </trkpt>
      <trkpt lat="61.299532330696" lon="12.23176199054">
        <ele>520</ele>
        <time>2020-01-02T19:03:33Z</time>
      </trkpt>
      <trkpt lat="61.299485140599" lon="12.231683116861">
        <ele>521.2</ele>
        <time>2020-01-02T19:03:38Z</time>
      </trkpt>
      <trkpt lat="61.299356729891" lon="12.231455380638">
        <ele>522.2</ele>
        <time>2020-01-02T19:03:52Z</time>
      </trkpt>
      <trkpt lat="61.299316664409" lon="12.231409364007">
        <ele>522.4</ele>
        <time>2020-01-02T19:03:55Z</time>
      </trkpt>
      <trkpt lat="61.299264277534" lon="12.23131858803">
        <ele>523.4</ele>
        <time>2020-01-02T19:04:00Z</time>
      </trkpt>
      <trkpt lat="61.299210549555" lon="12.231222950551">
        <ele>524.6</ele>
        <time>2020-01-02T19:04:06Z</time>
      </trkpt>
      <trkpt lat="61.299139051948" lon="12.231080709708">
        <ele>525.6</ele>
        <time>2020-01-02T19:04:13Z</time>
      </trkpt>
      <trkpt lat="61.299020280425" lon="12.230912149699">
        <ele>526.6</ele>
        <time>2020-01-02T19:04:25Z</time>
      </trkpt>
      <trkpt lat="61.29898549554" lon="12.230833862753">
        <ele>527.8</ele>
        <time>2020-01-02T19:04:29Z</time>
      </trkpt>
      <trkpt lat="61.298928330982" lon="12.230715594144">
        <ele>528.6</ele>
        <time>2020-01-02T19:04:36Z</time>
      </trkpt>
      <trkpt lat="61.298930258819" lon="12.230659351595">
        <ele>528.8</ele>
        <time>2020-01-02T19:04:39Z</time>
      </trkpt>
      <trkpt lat="61.298980801676" lon="12.230409487156">
        <ele>529.8</ele>
        <time>2020-01-02T19:04:49Z</time>
      </trkpt>
      <trkpt lat="61.299028662325" lon="12.230223828071">
        <ele>531</ele>
        <time>2020-01-02T19:04:56Z</time>
      </trkpt>
      <trkpt lat="61.29905255074" lon="12.230097931933">
        <ele>532</ele>
        <time>2020-01-02T19:05:01Z</time>
      </trkpt>
      <trkpt lat="61.299077193526" lon="12.229977651668">
        <ele>533.2</ele>
        <time>2020-01-02T19:05:06Z</time>
      </trkpt>
      <trkpt lat="61.299102925959" lon="12.229860640344">
        <ele>534.2</ele>
        <time>2020-01-02T19:05:11Z</time>
      </trkpt>
      <trkpt lat="61.299149948418" lon="12.22975871644">
        <ele>535.2</ele>
        <time>2020-01-02T19:05:16Z</time>
      </trkpt>
      <trkpt lat="61.299195378316" lon="12.229635334872">
        <ele>536.4</ele>
        <time>2020-01-02T19:05:22Z</time>
      </trkpt>
      <trkpt lat="61.299238964196" lon="12.229511618028">
        <ele>537.4</ele>
        <time>2020-01-02T19:05:28Z</time>
      </trkpt>
      <trkpt lat="61.299285316103" lon="12.229323863468">
        <ele>538.6</ele>
        <time>2020-01-02T19:05:36Z</time>
      </trkpt>
      <trkpt lat="61.299306857586" lon="12.229191932362">
        <ele>539.6</ele>
        <time>2020-01-02T19:05:41Z</time>
      </trkpt>
      <trkpt lat="61.299323369929" lon="12.229090930467">
        <ele>540.6</ele>
        <time>2020-01-02T19:05:45Z</time>
      </trkpt>
      <trkpt lat="61.299324459576" lon="12.228992359323">
        <ele>541.6</ele>
        <time>2020-01-02T19:05:49Z</time>
      </trkpt>
      <trkpt lat="61.29932831525" lon="12.228889010496">
        <ele>542.6</ele>
        <time>2020-01-02T19:05:53Z</time>
      </trkpt>
      <trkpt lat="61.299332338562" lon="12.228745428549">
        <ele>543.6</ele>
        <time>2020-01-02T19:05:58Z</time>
      </trkpt>
      <trkpt lat="61.299347677439" lon="12.228653395287">
        <ele>544.8</ele>
        <time>2020-01-02T19:06:02Z</time>
      </trkpt>
      <trkpt lat="61.299361675212" lon="12.228519117249">
        <ele>545.8</ele>
        <time>2020-01-02T19:06:07Z</time>
      </trkpt>
      <trkpt lat="61.299370895302" lon="12.228390874179">
        <ele>547</ele>
        <time>2020-01-02T19:06:12Z</time>
      </trkpt>
      <trkpt lat="61.299492265214" lon="12.228171016942">
        <ele>545.8</ele>
        <time>2020-01-02T19:06:26Z</time>
      </trkpt>
      <trkpt lat="61.299501485304" lon="12.228150900382">
        <ele>545.8</ele>
        <time>2020-01-02T19:06:28Z</time>
      </trkpt>
      <trkpt lat="61.299558146948" lon="12.228122066646">
        <ele>547.2</ele>
        <time>2020-01-02T19:06:34Z</time>
      </trkpt>
      <trkpt lat="61.299593770023" lon="12.228113098013">
        <ele>548</ele>
        <time>2020-01-02T19:06:37Z</time>
      </trkpt>
      <trkpt lat="61.299605001769" lon="12.22810999671">
        <ele>548.2</ele>
        <time>2020-01-02T19:06:38Z</time>
      </trkpt>
      <trkpt lat="61.299786972818" lon="12.228119552076">
        <ele>548.4</ele>
        <time>2020-01-02T19:06:51Z</time>
      </trkpt>
      <trkpt lat="61.299896524251" lon="12.228039421112">
        <ele>548.8</ele>
        <time>2020-01-02T19:06:59Z</time>
      </trkpt>
      <trkpt lat="61.299857632235" lon="12.22787195075">
        <ele>549.4</ele>
        <time>2020-01-02T19:07:06Z</time>
      </trkpt>
      <trkpt lat="61.299810442138" lon="12.227744629689">
        <ele>550.6</ele>
        <time>2020-01-02T19:07:12Z</time>
      </trkpt>
      <trkpt lat="61.29972477912" lon="12.227565089391">
        <ele>551.8</ele>
        <time>2020-01-02T19:07:21Z</time>
      </trkpt>
      <trkpt lat="61.299678930127" lon="12.227461740564">
        <ele>552.8</ele>
        <time>2020-01-02T19:07:26Z</time>
      </trkpt>
      <trkpt lat="61.299636098618" lon="12.22735143476">
        <ele>553.8</ele>
        <time>2020-01-02T19:07:31Z</time>
      </trkpt>
      <trkpt lat="61.299564349554" lon="12.227220509482">
        <ele>555</ele>
        <time>2020-01-02T19:07:38Z</time>
      </trkpt>
      <trkpt lat="61.299502323494" lon="12.227137193396">
        <ele>556</ele>
        <time>2020-01-02T19:07:44Z</time>
      </trkpt>
      <trkpt lat="61.299428143679" lon="12.227060750468">
        <ele>557.2</ele>
        <time>2020-01-02T19:07:51Z</time>
      </trkpt>
      <trkpt lat="61.29934759362" lon="12.226962095505">
        <ele>558.2</ele>
        <time>2020-01-02T19:07:58Z</time>
      </trkpt>
      <trkpt lat="61.299209040813" lon="12.22684432981">
        <ele>559.2</ele>
        <time>2020-01-02T19:08:08Z</time>
      </trkpt>
      <trkpt lat="61.299122707243" lon="12.226748440874">
        <ele>560.4</ele>
        <time>2020-01-02T19:08:16Z</time>
      </trkpt>
      <trkpt lat="61.299022208262" lon="12.226638554165">
        <ele>561.4</ele>
        <time>2020-01-02T19:08:24Z</time>
      </trkpt>
      <trkpt lat="61.298925062041" lon="12.226535959709">
        <ele>562.4</ele>
        <time>2020-01-02T19:08:32Z</time>
      </trkpt>
      <trkpt lat="61.298844511982" lon="12.226449290863">
        <ele>563.6</ele>
        <time>2020-01-02T19:08:39Z</time>
      </trkpt>
      <trkpt lat="61.298788185614" lon="12.226373099392">
        <ele>564.6</ele>
        <time>2020-01-02T19:08:44Z</time>
      </trkpt>
      <trkpt lat="61.298705288623" lon="12.226270924031">
        <ele>565.6</ele>
        <time>2020-01-02T19:08:51Z</time>
      </trkpt>
      <trkpt lat="61.298646782961" lon="12.226203198279">
        <ele>566.8</ele>
        <time>2020-01-02T19:08:56Z</time>
      </trkpt>
      <trkpt lat="61.298544020867" lon="12.226095323226">
        <ele>567.8</ele>
        <time>2020-01-02T19:09:05Z</time>
      </trkpt>
      <trkpt lat="61.298448634845" lon="12.225992644951">
        <ele>568.8</ele>
        <time>2020-01-02T19:09:13Z</time>
      </trkpt>
      <trkpt lat="61.298364815845" lon="12.225909161227">
        <ele>570</ele>
        <time>2020-01-02T19:09:20Z</time>
      </trkpt>
      <trkpt lat="61.298265574149" lon="12.225829365539">
        <ele>571.2</ele>
        <time>2020-01-02T19:09:28Z</time>
      </trkpt>
      <trkpt lat="61.298167673557" lon="12.225750575679">
        <ele>572.2</ele>
        <time>2020-01-02T19:09:36Z</time>
      </trkpt>
      <trkpt lat="61.298081842901" lon="12.225664242109">
        <ele>573.2</ele>
        <time>2020-01-02T19:09:43Z</time>
      </trkpt>
      <trkpt lat="61.297973381115" lon="12.225596851633">
        <ele>574.4</ele>
        <time>2020-01-02T19:09:51Z</time>
      </trkpt>
      <trkpt lat="61.297908672847" lon="12.225559887454">
        <ele>575.4</ele>
        <time>2020-01-02T19:09:56Z</time>
      </trkpt>
      <trkpt lat="61.297847987891" lon="12.225531975727">
        <ele>576.6</ele>
        <time>2020-01-02T19:10:01Z</time>
      </trkpt>
      <trkpt lat="61.297738939372" lon="12.22545544898">
        <ele>577.6</ele>
        <time>2020-01-02T19:10:10Z</time>
      </trkpt>
      <trkpt lat="61.297682529185" lon="12.225416137869">
        <ele>578.8</ele>
        <time>2020-01-02T19:10:15Z</time>
      </trkpt>
      <trkpt lat="61.297609606655" lon="12.225377329672">
        <ele>579.8</ele>
        <time>2020-01-02T19:10:21Z</time>
      </trkpt>
      <trkpt lat="61.297550681898" lon="12.225332821783">
        <ele>581</ele>
        <time>2020-01-02T19:10:26Z</time>
      </trkpt>
      <trkpt lat="61.297481866499" lon="12.22528445822">
        <ele>582</ele>
        <time>2020-01-02T19:10:32Z</time>
      </trkpt>
      <trkpt lat="61.297413973109" lon="12.225278507071">
        <ele>583</ele>
        <time>2020-01-02T19:10:38Z</time>
      </trkpt>
      <trkpt lat="61.297349851574" lon="12.225245230928">
        <ele>584.2</ele>
        <time>2020-01-02T19:10:44Z</time>
      </trkpt>
      <trkpt lat="61.297311881567" lon="12.22518806637">
        <ele>585.2</ele>
        <time>2020-01-02T19:10:49Z</time>
      </trkpt>
      <trkpt lat="61.29730241002" lon="12.225180355022">
        <ele>585.4</ele>
        <time>2020-01-02T19:10:50Z</time>
      </trkpt>
      <trkpt lat="61.297187829447" lon="12.225148252345">
        <ele>586.4</ele>
        <time>2020-01-02T19:10:59Z</time>
      </trkpt>
      <trkpt lat="61.297128820871" lon="12.225132578192">
        <ele>587.4</ele>
        <time>2020-01-02T19:11:04Z</time>
      </trkpt>
      <trkpt lat="61.29701993999" lon="12.225074240168">
        <ele>588.4</ele>
        <time>2020-01-02T19:11:13Z</time>
      </trkpt>
      <trkpt lat="61.296968139848" lon="12.225050770848">
        <ele>589.4</ele>
        <time>2020-01-02T19:11:17Z</time>
      </trkpt>
      <trkpt lat="61.296915920611" lon="12.225021434198">
        <ele>590.6</ele>
        <time>2020-01-02T19:11:21Z</time>
      </trkpt>
      <trkpt lat="61.296842159891" lon="12.224969801694">
        <ele>591.6</ele>
        <time>2020-01-02T19:11:27Z</time>
      </trkpt>
      <trkpt lat="61.296767141886" lon="12.224917833914">
        <ele>592.6</ele>
        <time>2020-01-02T19:11:33Z</time>
      </trkpt>
      <trkpt lat="61.296686508008" lon="12.224850862533">
        <ele>593.8</ele>
        <time>2020-01-02T19:11:40Z</time>
      </trkpt>
      <trkpt lat="61.296571843616" lon="12.224757152891">
        <ele>594.8</ele>
        <time>2020-01-02T19:11:50Z</time>
      </trkpt>
      <trkpt lat="61.296488695168" lon="12.224662688878">
        <ele>595.8</ele>
        <time>2020-01-02T19:11:58Z</time>
      </trkpt>
      <trkpt lat="61.296399176476" lon="12.224610050546">
        <ele>597</ele>
        <time>2020-01-02T19:12:06Z</time>
      </trkpt>
      <trkpt lat="61.296319716064" lon="12.224548946495">
        <ele>598</ele>
        <time>2020-01-02T19:12:14Z</time>
      </trkpt>
      <trkpt lat="61.296224246223" lon="12.224441155261">
        <ele>599</ele>
        <time>2020-01-02T19:12:23Z</time>
      </trkpt>
      <trkpt lat="61.296174793013" lon="12.224373261871">
        <ele>600</ele>
        <time>2020-01-02T19:12:28Z</time>
      </trkpt>
      <trkpt lat="61.296164818552" lon="12.224337554977">
        <ele>600.2</ele>
        <time>2020-01-02T19:12:30Z</time>
      </trkpt>
      <trkpt lat="61.296173535728" lon="12.224300004065">
        <ele>600.4</ele>
        <time>2020-01-02T19:12:32Z</time>
      </trkpt>
      <trkpt lat="61.296212343925" lon="12.224216185065">
        <ele>601.2</ele>
        <time>2020-01-02T19:12:37Z</time>
      </trkpt>
      <trkpt lat="61.296361457926" lon="12.224219873101">
        <ele>601</ele>
        <time>2020-01-02T19:12:51Z</time>
      </trkpt>
      <trkpt lat="61.296370091283" lon="12.22423923529">
        <ele>601.2</ele>
        <time>2020-01-02T19:12:53Z</time>
      </trkpt>
      <trkpt lat="61.296394063517" lon="12.224263794257">
        <ele>601.2</ele>
        <time>2020-01-02T19:12:56Z</time>
      </trkpt>
      <trkpt lat="61.296418035751" lon="12.224260357678">
        <ele>601.6</ele>
        <time>2020-01-02T19:13:24Z</time>
      </trkpt>
    </trkseg>
  </trk>
</gpx>